createdAt,value
2022-08-26T00:01:13.574Z,4.80
2022-08-26T00:04:16.489Z,5.40
2022-08-26T00:07:18.980Z,4.15
2022-08-26T00:10:21.655Z,4.65
2022-08-26T00:13:28.260Z,4.75
2022-08-26T00:16:31.639Z,4.93
2022-08-26T00:19:34.017Z,5.10
2022-08-26T00:22:37.142Z,4.57
2022-08-26T00:25:42.532Z,4.25
2022-08-26T00:28:45.032Z,4.70
2022-08-26T00:31:47.691Z,4.77
2022-08-26T00:34:50.630Z,4.38
2022-08-26T00:37:53.368Z,5.05
2022-08-26T00:40:57.385Z,5.10
2022-08-26T00:44:00.076Z,4.97
2022-08-26T00:47:07.977Z,5.00
2022-08-26T00:50:13.732Z,5.18
2022-08-26T00:53:24.162Z,4.78
2022-08-26T00:56:47.048Z,4.65
2022-08-26T00:59:55.182Z,4.55
2022-08-26T01:03:00.374Z,4.87
2022-08-26T01:06:03.796Z,5.00
2022-08-26T01:09:06.844Z,5.03
2022-08-26T01:12:09.870Z,4.57
2022-08-26T01:15:19.222Z,4.45
2022-08-26T01:18:22.844Z,4.67
2022-08-26T01:21:45.508Z,4.53
2022-08-26T01:24:49.372Z,4.82
2022-08-26T01:28:00.054Z,4.70
2022-08-26T01:31:05.218Z,4.90
2022-08-26T01:34:37.850Z,4.73
2022-08-26T01:37:41.372Z,5.10
2022-08-26T01:40:44.164Z,5.15
2022-08-26T01:43:50.680Z,5.13
2022-08-26T01:46:54.647Z,5.68
2022-08-26T01:50:01.231Z,5.30
2022-08-26T01:53:09.662Z,5.07
2022-08-26T01:56:15.471Z,4.75
2022-08-26T01:59:20.357Z,5.05
2022-08-26T02:02:23.364Z,5.18
2022-08-26T02:05:26.924Z,4.90
2022-08-26T02:08:44.495Z,5.22
2022-08-26T02:11:47.460Z,5.00
2022-08-26T02:14:53.798Z,5.00
2022-08-26T02:17:56.190Z,5.25
2022-08-26T02:21:00.367Z,5.07
2022-08-26T02:24:15.294Z,4.93
2022-08-26T02:27:21.200Z,5.13
2022-08-26T02:30:32.083Z,5.30
2022-08-26T02:33:34.538Z,5.45
2022-08-26T02:36:38.791Z,5.37
2022-08-26T02:39:42.988Z,5.28
2022-08-26T02:42:45.290Z,5.43
2022-08-26T02:45:47.612Z,5.50
2022-08-26T02:48:50.372Z,5.45
2022-08-26T02:51:52.975Z,5.43
2022-08-26T02:54:55.313Z,5.53
2022-08-26T02:57:58.149Z,5.57
2022-08-26T03:01:01.714Z,5.70
2022-08-26T03:04:11.655Z,5.57
2022-08-26T03:07:14.897Z,4.90
2022-08-26T03:10:18.321Z,6.28
2022-08-26T03:13:20.763Z,5.85
2022-08-26T03:16:23.240Z,5.88
2022-08-26T03:19:26.351Z,5.68
2022-08-26T03:22:28.631Z,5.37
2022-08-26T03:25:30.932Z,5.55
2022-08-26T03:28:33.371Z,5.53
2022-08-26T03:31:37.908Z,5.80
2022-08-26T03:34:40.576Z,5.95
2022-08-26T03:37:43.337Z,5.57
2022-08-26T03:40:46.888Z,6.13
2022-08-26T03:43:51.001Z,5.93
2022-08-26T03:46:54.495Z,6.55
2022-08-26T03:49:57.909Z,6.10
2022-08-26T03:53:00.215Z,6.43
2022-08-26T03:56:03.883Z,6.20
2022-08-26T03:59:07.675Z,6.20
2022-08-26T04:02:11.627Z,6.32
2022-08-26T04:05:16.592Z,6.13
2022-08-26T04:08:20.063Z,5.80
2022-08-26T04:11:34.243Z,6.13
2022-08-26T04:14:40.197Z,6.30
2022-08-26T04:17:42.970Z,6.53
2022-08-26T04:20:47.407Z,6.47
2022-08-26T04:23:50.214Z,6.13
2022-08-26T04:26:53.284Z,6.53
2022-08-26T04:29:55.559Z,6.38
2022-08-26T04:32:58.473Z,6.00
2022-08-26T04:36:02.610Z,6.20
2022-08-26T04:39:06.985Z,6.10
2022-08-26T04:42:09.259Z,6.50
2022-08-26T04:45:11.836Z,6.43
2022-08-26T04:48:16.765Z,7.20
2022-08-26T04:51:21.398Z,6.90
2022-08-26T04:54:25.195Z,7.67
2022-08-26T04:57:27.758Z,7.20
2022-08-26T05:00:30.099Z,6.97
2022-08-26T05:03:32.469Z,7.00
2022-08-26T05:06:37.039Z,6.45
2022-08-26T05:09:40.723Z,7.10
2022-08-26T05:12:43.050Z,6.25
2022-08-26T05:15:47.763Z,6.88
2022-08-26T05:18:52.864Z,6.45
2022-08-26T05:21:55.220Z,6.20
2022-08-26T05:24:57.480Z,6.80
2022-08-26T05:27:59.866Z,6.78
2022-08-26T05:31:10.540Z,6.90
2022-08-26T05:34:13.579Z,7.07
2022-08-26T05:37:17.060Z,6.03
2022-08-26T05:40:20.164Z,6.57
2022-08-26T05:43:23.206Z,16.23
2022-08-26T05:46:27.045Z,29.23
2022-08-26T05:49:29.367Z,10.77
2022-08-26T05:52:33.624Z,37.72
2022-08-26T05:55:42.705Z,6.87
2022-08-26T05:58:45.011Z,6.18
2022-08-26T06:01:48.618Z,6.95
2022-08-26T06:04:51.528Z,6.93
2022-08-26T06:08:14.194Z,6.78
2022-08-26T06:11:19.619Z,10.27
2022-08-26T06:14:23.083Z,10.98
2022-08-26T06:17:25.477Z,6.85
2022-08-26T06:20:31.780Z,8.23
2022-08-26T06:23:52.482Z,6.25
2022-08-26T06:26:57.203Z,9.47
2022-08-26T06:29:59.499Z,48.67
2022-08-26T06:33:02.415Z,37.45
2022-08-26T06:36:07.550Z,61.78
2022-08-26T06:39:12.325Z,24.13
2022-08-26T06:42:14.672Z,18.97
2022-08-26T06:45:17.305Z,13.88
2022-08-26T06:48:21.606Z,18.55
2022-08-26T06:51:30.077Z,15.73
2022-08-26T06:54:32.544Z,11.15
2022-08-26T06:57:37.768Z,19.37
2022-08-26T07:00:47.380Z,14.27
2022-08-26T07:03:55.208Z,6.95
2022-08-26T07:06:59.616Z,7.68
2022-08-26T07:10:02.451Z,5.88
2022-08-26T07:13:07.353Z,5.80
2022-08-26T07:16:13.684Z,7.22
2022-08-26T07:19:28.525Z,5.78
2022-08-26T07:22:33.679Z,4.95
2022-08-26T07:25:43.069Z,5.55
2022-08-26T07:28:48.629Z,5.30
2022-08-26T07:31:50.877Z,4.40
2022-08-26T07:34:53.284Z,4.72
2022-08-26T07:37:57.165Z,4.35
2022-08-26T07:40:59.567Z,4.10
2022-08-26T07:44:02.539Z,4.83
2022-08-26T07:47:10.446Z,4.00
2022-08-26T07:50:49.294Z,4.50
2022-08-26T07:53:52.349Z,4.45
2022-08-26T07:56:55.917Z,4.40
2022-08-26T08:00:01.927Z,4.10
2022-08-26T08:03:15.258Z,4.18
2022-08-26T08:06:22.298Z,4.32
2022-08-26T08:09:24.745Z,4.65
2022-08-26T08:12:27.038Z,4.20
2022-08-26T08:15:33.252Z,4.10
2022-08-26T08:18:37.912Z,4.00
2022-08-26T08:21:46.959Z,4.30
2022-08-26T08:24:52.979Z,4.30
2022-08-26T08:27:55.538Z,4.07
2022-08-26T08:30:59.649Z,4.40
2022-08-26T08:34:01.967Z,3.90
2022-08-26T08:37:10.072Z,3.97
2022-08-26T08:40:18.283Z,3.97
2022-08-26T08:43:44.600Z,3.88
2022-08-26T08:46:55.848Z,4.03
2022-08-26T08:50:12.674Z,4.13
2022-08-26T08:53:37.659Z,3.65
2022-08-26T08:56:53.192Z,3.70
2022-08-26T09:00:09.141Z,4.10
2022-08-26T09:03:28.947Z,4.00
2022-08-26T09:06:31.507Z,3.55
2022-08-26T09:09:40.514Z,4.00
2022-08-26T09:12:43.799Z,4.03
2022-08-26T09:15:54.322Z,3.50
2022-08-26T09:19:03.765Z,4.20
2022-08-26T09:22:08.925Z,3.50
2022-08-26T09:25:14.654Z,3.45
2022-08-26T09:28:19.843Z,3.80
2022-08-26T09:31:34.241Z,3.60
2022-08-26T09:34:52.033Z,3.50
2022-08-26T09:37:54.447Z,3.80
2022-08-26T09:41:01.094Z,3.78
2022-08-26T09:44:18.340Z,3.40
2022-08-26T09:47:30.290Z,3.55
2022-08-26T09:50:41.005Z,3.87
2022-08-26T09:53:55.999Z,3.42
2022-08-26T09:57:17.950Z,3.40
2022-08-26T10:00:41.819Z,3.22
2022-08-26T10:03:45.613Z,3.45
2022-08-26T10:07:05.118Z,3.50
2022-08-26T10:10:18.590Z,3.22
2022-08-26T10:13:37.601Z,3.45
2022-08-26T10:17:20.382Z,3.20
2022-08-26T10:20:27.393Z,3.30
2022-08-26T10:23:33.101Z,3.60
2022-08-26T10:26:59.079Z,3.20
2022-08-26T10:30:12.502Z,3.28
2022-08-26T10:33:15.502Z,3.15
2022-08-26T10:37:05.130Z,3.47
2022-08-26T10:40:16.026Z,2.93
2022-08-26T10:43:25.649Z,2.97
2022-08-26T10:46:37.040Z,3.20
2022-08-26T10:49:46.048Z,2.97
2022-08-26T10:52:54.913Z,3.65
2022-08-26T10:56:25.119Z,3.40
2022-08-26T10:59:36.814Z,3.13
2022-08-26T11:02:48.260Z,3.30
2022-08-26T11:06:16.217Z,3.20
2022-08-26T11:09:47.508Z,3.38
2022-08-26T11:12:58.819Z,3.43
2022-08-26T11:16:01.419Z,3.25
2022-08-26T11:19:05.048Z,3.33
2022-08-26T11:22:28.082Z,3.20
2022-08-26T11:25:31.084Z,3.15
2022-08-26T11:28:49.734Z,2.90
2022-08-26T11:31:55.708Z,3.10
2022-08-26T11:35:00.435Z,3.13
2022-08-26T11:38:27.117Z,2.75
2022-08-26T11:41:31.365Z,2.92
2022-08-26T11:44:40.073Z,2.90
2022-08-26T11:47:42.927Z,3.20
2022-08-26T11:51:11.234Z,3.45
2022-08-26T11:54:16.119Z,2.95
2022-08-26T11:57:18.441Z,2.90
2022-08-26T12:00:48.744Z,2.67
2022-08-26T12:03:52.378Z,2.85
2022-08-26T12:06:55.774Z,3.00
2022-08-26T12:10:03.502Z,2.78
2022-08-26T12:13:07.258Z,3.00
2022-08-26T12:16:09.702Z,3.00
2022-08-26T12:19:26.288Z,3.47
2022-08-26T12:22:41.968Z,2.92
2022-08-26T12:25:52.075Z,2.50
2022-08-26T12:29:01.510Z,2.90
2022-08-26T12:32:17.805Z,2.90
2022-08-26T12:35:21.260Z,2.80
2022-08-26T12:38:26.918Z,2.97
2022-08-26T12:42:04.346Z,2.70
2022-08-26T12:45:07.643Z,2.80
2022-08-26T12:48:13.617Z,2.90
2022-08-26T12:51:24.456Z,3.00
2022-08-26T12:54:46.925Z,3.15
2022-08-26T12:57:49.320Z,2.58
2022-08-26T13:00:56.142Z,2.92
2022-08-26T13:03:58.556Z,3.13
2022-08-26T13:07:18.658Z,3.00
2022-08-26T13:10:36.197Z,2.90
2022-08-26T13:13:39.085Z,2.70
2022-08-26T13:16:41.693Z,2.92
2022-08-26T13:19:44.106Z,3.00
2022-08-26T13:22:46.509Z,3.03
2022-08-26T13:25:56.228Z,2.90
2022-08-26T13:29:01.731Z,3.17
2022-08-26T13:32:06.571Z,3.10
2022-08-26T13:35:09.012Z,3.20
2022-08-26T13:38:22.383Z,3.03
2022-08-26T13:41:36.712Z,2.70
2022-08-26T13:44:39.141Z,3.00
2022-08-26T13:47:41.412Z,2.70
2022-08-26T13:50:43.700Z,2.70
2022-08-26T13:53:46.256Z,2.58
2022-08-26T13:56:48.548Z,2.60
2022-08-26T13:59:53.920Z,2.97
2022-08-26T14:02:56.213Z,2.78
2022-08-26T14:05:58.495Z,2.70
2022-08-26T14:09:00.837Z,2.80
2022-08-26T14:12:03.370Z,2.92
2022-08-26T14:15:06.841Z,2.80
2022-08-26T14:18:10.952Z,3.15
2022-08-26T14:21:14.493Z,2.90
2022-08-26T14:24:16.759Z,2.95
2022-08-26T14:27:19.017Z,3.13
2022-08-26T14:30:29.196Z,2.92
2022-08-26T14:33:33.948Z,2.20
2022-08-26T14:36:39.650Z,2.83
2022-08-26T14:39:42.001Z,2.67
2022-08-26T14:42:49.677Z,3.05
2022-08-26T14:45:56.137Z,2.50
2022-08-26T14:49:01.734Z,3.10
2022-08-26T14:52:05.013Z,3.10
2022-08-26T14:55:07.681Z,2.88
2022-08-26T14:58:10.261Z,2.70
2022-08-26T15:01:13.082Z,2.45
2022-08-26T15:04:15.497Z,2.65
2022-08-26T15:07:18.201Z,2.93
2022-08-26T15:10:20.709Z,2.53
2022-08-26T15:13:23.748Z,2.70
2022-08-26T15:16:27.555Z,2.60
2022-08-26T15:19:29.956Z,2.45
2022-08-26T15:22:32.246Z,2.90
2022-08-26T15:25:34.656Z,3.00
2022-08-26T15:28:38.432Z,2.60
2022-08-26T15:31:40.905Z,3.28
2022-08-26T15:34:43.280Z,2.80
2022-08-26T15:37:45.634Z,2.57
2022-08-26T15:40:48.026Z,2.70
2022-08-26T15:43:50.615Z,2.70
2022-08-26T15:46:58.485Z,2.88
2022-08-26T15:50:01.226Z,2.78
2022-08-26T15:53:05.208Z,2.57
2022-08-26T15:56:07.479Z,2.70
2022-08-26T15:59:11.357Z,2.67
2022-08-26T16:02:13.738Z,2.75
2022-08-26T16:05:16.443Z,2.72
2022-08-26T16:08:18.994Z,2.77
2022-08-26T16:11:21.384Z,2.70
2022-08-26T16:14:24.183Z,2.67
2022-08-26T16:17:26.439Z,2.83
2022-08-26T16:20:29.795Z,2.60
2022-08-26T16:23:32.045Z,2.87
2022-08-26T16:26:36.765Z,3.10
2022-08-26T16:29:40.904Z,2.80
2022-08-26T16:32:45.524Z,2.63
2022-08-26T16:35:48.060Z,2.75
2022-08-26T16:38:55.203Z,2.80
2022-08-26T16:41:57.628Z,2.78
2022-08-26T16:44:59.971Z,3.00
2022-08-26T16:48:02.429Z,2.67
2022-08-26T16:51:04.686Z,2.47
2022-08-26T16:54:08.069Z,2.90
2022-08-26T16:57:12.194Z,2.97
2022-08-26T17:00:20.685Z,3.33
2022-08-26T17:03:23.020Z,3.10
2022-08-26T17:06:25.316Z,2.97
2022-08-26T17:09:27.669Z,3.10
2022-08-26T17:12:33.830Z,2.95
2022-08-26T17:15:36.132Z,2.80
2022-08-26T17:18:38.773Z,3.20
2022-08-26T17:21:41.244Z,3.00
2022-08-26T17:24:43.577Z,3.03
2022-08-26T17:27:48.849Z,3.58
2022-08-26T17:30:51.177Z,2.85
2022-08-26T17:33:55.459Z,3.20
2022-08-26T17:36:57.788Z,3.15
2022-08-26T17:40:00.205Z,3.33
2022-08-26T17:43:03.031Z,3.60
2022-08-26T17:46:08.064Z,3.58
2022-08-26T17:49:10.388Z,2.80
2022-08-26T17:52:12.659Z,3.10
2022-08-26T17:55:16.887Z,3.07
2022-08-26T17:58:23.247Z,3.38
2022-08-26T18:01:27.772Z,2.97
2022-08-26T18:04:30.256Z,2.90
2022-08-26T18:07:33.520Z,3.50
2022-08-26T18:10:44.745Z,4.23
2022-08-26T18:13:47.766Z,3.60
2022-08-26T18:16:51.085Z,3.08
2022-08-26T18:19:53.628Z,3.58
2022-08-26T18:22:55.901Z,3.17
2022-08-26T18:25:58.172Z,3.20
2022-08-26T18:29:00.835Z,3.55
2022-08-26T18:32:03.452Z,3.50
2022-08-26T18:35:06.095Z,3.28
2022-08-26T18:38:11.091Z,3.40
2022-08-26T18:41:14.455Z,3.50
2022-08-26T18:44:18.667Z,3.58
2022-08-26T18:47:21.053Z,3.22
2022-08-26T18:50:23.648Z,3.60
2022-08-26T18:53:27.488Z,3.80
2022-08-26T18:56:30.101Z,3.50
2022-08-26T18:59:32.731Z,3.63
2022-08-26T19:02:35.081Z,3.45
2022-08-26T19:05:40.217Z,3.45
2022-08-26T19:08:44.769Z,3.92
2022-08-26T19:11:47.241Z,3.90
2022-08-26T19:14:51.993Z,3.65
2022-08-26T19:17:54.279Z,3.55
2022-08-26T19:20:56.915Z,3.70
2022-08-26T19:24:01.734Z,3.92
2022-08-26T19:27:04.506Z,4.10
2022-08-26T19:30:07.585Z,4.10
2022-08-26T19:33:10.473Z,3.83
2022-08-26T19:36:25.424Z,3.90
2022-08-26T19:39:27.799Z,3.80
2022-08-26T19:42:30.097Z,3.40
2022-08-26T19:45:33.024Z,3.78
2022-08-26T19:48:35.317Z,4.07
2022-08-26T19:51:37.736Z,3.97
2022-08-26T19:54:40.563Z,3.70
2022-08-26T19:57:43.683Z,3.70
2022-08-26T20:00:45.992Z,4.07
2022-08-26T20:03:48.342Z,4.65
2022-08-26T20:06:50.778Z,4.15
2022-08-26T20:09:56.093Z,3.88
2022-08-26T20:12:58.520Z,3.73
2022-08-26T20:16:00.819Z,4.00
2022-08-26T20:19:21.895Z,4.22
2022-08-26T20:22:24.760Z,4.38
2022-08-26T20:25:27.084Z,5.07
2022-08-26T20:28:29.677Z,4.30
2022-08-26T20:31:32.095Z,4.38
2022-08-26T20:34:36.155Z,4.20
2022-08-26T20:37:38.596Z,4.78
2022-08-26T20:40:42.209Z,4.10
2022-08-26T20:43:44.887Z,4.17
2022-08-26T20:46:47.382Z,4.60
2022-08-26T20:49:52.383Z,4.50
2022-08-26T20:52:54.935Z,4.97
2022-08-26T20:56:02.434Z,4.60
2022-08-26T20:59:11.600Z,5.47
2022-08-26T21:02:13.899Z,4.55
2022-08-26T21:05:17.234Z,5.53
2022-08-26T21:08:19.603Z,5.03
2022-08-26T21:11:22.367Z,5.13
2022-08-26T21:14:25.972Z,4.63
2022-08-26T21:17:29.282Z,5.03
2022-08-26T21:20:32.702Z,5.15
2022-08-26T21:23:36.233Z,4.95
2022-08-26T21:26:38.701Z,5.07
2022-08-26T21:29:40.961Z,4.83
2022-08-26T21:32:43.292Z,4.80
2022-08-26T21:35:54.965Z,4.10
2022-08-26T21:38:58.876Z,3.90
2022-08-26T21:42:01.148Z,3.97
2022-08-26T21:45:04.539Z,3.70
2022-08-26T21:48:07.799Z,3.97
2022-08-26T21:51:12.502Z,4.40
2022-08-26T21:54:15.897Z,4.00
2022-08-26T21:57:19.036Z,4.22
2022-08-26T22:00:21.439Z,4.00
2022-08-26T22:03:23.733Z,4.20
2022-08-26T22:06:27.713Z,4.40
2022-08-26T22:09:31.675Z,4.38
2022-08-26T22:12:34.023Z,4.68
2022-08-26T22:15:38.577Z,4.37
2022-08-26T22:18:45.654Z,5.07
2022-08-26T22:21:52.972Z,4.70
2022-08-26T22:24:55.252Z,5.75
2022-08-26T22:27:57.540Z,4.93
2022-08-26T22:31:00.517Z,4.93
2022-08-26T22:34:04.191Z,4.60
2022-08-26T22:37:06.516Z,5.07
2022-08-26T22:40:09.749Z,4.68
2022-08-26T22:43:12.931Z,4.78
2022-08-26T22:46:34.865Z,4.83
2022-08-26T22:49:37.248Z,4.85
2022-08-26T22:52:39.540Z,4.90
2022-08-26T22:55:43.407Z,6.53
2022-08-26T22:58:45.778Z,5.25
2022-08-26T23:01:48.112Z,5.37
2022-08-26T23:04:51.215Z,5.15
2022-08-26T23:07:54.038Z,5.38
2022-08-26T23:11:02.998Z,5.22
2022-08-26T23:14:06.488Z,4.97
2022-08-26T23:17:10.770Z,5.60
2022-08-26T23:20:14.789Z,5.55
2022-08-26T23:23:18.131Z,4.95
2022-08-26T23:26:20.419Z,5.13
2022-08-26T23:29:22.685Z,4.97
2022-08-26T23:32:24.953Z,5.00
2022-08-26T23:35:28.731Z,5.10
2022-08-26T23:38:31.346Z,5.22
2022-08-26T23:41:35.712Z,5.18
2022-08-26T23:44:38.823Z,4.95
2022-08-26T23:47:41.443Z,6.07
2022-08-26T23:51:02.133Z,5.20
2022-08-26T23:54:04.500Z,5.50
2022-08-26T23:57:08.846Z,5.20
